Time;durP1;ratioP1;P1;durP2;ratioP2;P2;SDS_P1;SDS_P2;PMS_P1;PMS_P2;Temp;Humidity;BMP_temperature;BMP_pressure;BME280_temperature;BME280_humidity;BME280_pressure;Samples;Min_cycle;Max_cycle;Signal;HPM_P1;HPM_P2
2020/12/03 00:02:14;;;;;;;50.50;27.05;;;5.60;52.50;;;;;;5058036;28;20040;-74
2020/12/03 00:04:42;;;;;;;48.75;24.95;;;5.50;52.40;;;;;;5075080;28;20032;-74
2020/12/03 00:07:08;;;;;;;46.30;25.52;;;5.60;52.50;;;;;;5074979;28;20012;-73
2020/12/03 00:09:34;;;;;;;48.60;26.05;;;5.50;52.50;;;;;;5073526;28;20020;-74
2020/12/03 00:12:01;;;;;;;50.38;26.30;;;5.60;52.50;;;;;;5073950;28;20027;-74
2020/12/03 00:14:26;;;;;;;49.33;26.42;;;5.60;52.50;;;;;;5074439;28;20086;-75
2020/12/03 00:16:53;;;;;;;51.88;26.10;;;5.60;52.50;;;;;;5074793;28;20036;-75
2020/12/03 00:19:24;;;;;;;48.50;25.92;;;5.60;52.50;;;;;;5074699;28;20039;-75
2020/12/03 00:21:58;;;;;;;55.17;27.08;;;5.60;52.40;;;;;;5074653;28;20036;-75
2020/12/03 00:24:29;;;;;;;50.97;26.55;;;5.60;52.40;;;;;;5073389;28;20453;-75
2020/12/03 00:26:56;;;;;;;54.45;28.55;;;5.60;52.40;;;;;;5074553;28;20027;-75
2020/12/03 00:29:22;;;;;;;51.42;26.90;;;5.60;52.40;;;;;;5073514;28;20429;-75
2020/12/03 00:31:50;;;;;;;56.15;29.58;;;5.50;52.30;;;;;;5074559;28;20021;-75
2020/12/03 00:34:18;;;;;;;51.67;27.08;;;5.50;52.40;;;;;;5073568;28;20074;-75
2020/12/03 00:36:44;;;;;;;53.80;27.83;;;5.50;52.50;;;;;;5074320;28;20059;-75
2020/12/03 00:39:12;;;;;;;58.35;28.63;;;5.50;52.70;;;;;;5063367;28;20382;-75
2020/12/03 00:41:38;;;;;;;57.40;27.73;;;5.50;52.80;;;;;;5054355;28;20532;-75
2020/12/03 00:44:06;;;;;;;54.22;27.05;;;5.50;53.00;;;;;;5054260;28;20497;-75
2020/12/03 00:46:34;;;;;;;54.03;26.83;;;5.40;53.20;;;;;;5054224;28;20029;-75
2020/12/03 00:49:00;;;;;;;59.72;30.23;;;5.50;53.50;;;;;;5054188;28;20092;-75
2020/12/03 00:51:26;;;;;;;57.13;29.00;;;5.50;53.60;;;;;;5052885;28;20021;-75
2020/12/03 00:53:53;;;;;;;56.35;28.02;;;5.50;53.70;;;;;;5052930;28;20035;-75
2020/12/03 00:56:19;;;;;;;54.35;26.55;;;5.40;53.90;;;;;;5054048;28;20025;-75
2020/12/03 00:58:48;;;;;;;55.33;28.20;;;5.40;54.00;;;;;;5054063;28;20027;-75
2020/12/03 01:01:19;;;;;;;61.85;29.30;;;5.40;54.20;;;;;;5052808;28;20021;-75
2020/12/03 01:03:45;;;;;;;55.53;28.00;;;5.40;54.40;;;;;;5052586;28;20029;-75
2020/12/03 01:06:11;;;;;;;58.97;28.85;;;5.40;54.60;;;;;;5053435;28;20029;-74
2020/12/03 01:08:37;;;;;;;52.60;28.27;;;5.30;54.80;;;;;;5053894;28;20028;-75
2020/12/03 01:11:04;;;;;;;53.97;27.50;;;5.30;55.00;;;;;;5053802;28;20049;-70
2020/12/03 01:13:30;;;;;;;53.83;27.65;;;5.30;55.30;;;;;;5061542;28;20025;-70
2020/12/03 01:15:56;;;;;;;54.67;26.92;;;5.20;55.30;;;;;;5073712;28;20097;-70
2020/12/03 01:18:23;;;;;;;54.88;27.95;;;5.20;55.50;;;;;;5072441;28;20027;-70
2020/12/03 01:20:49;;;;;;;55.22;27.20;;;5.20;55.70;;;;;;5073651;28;20100;-70
2020/12/03 01:23:15;;;;;;;57.05;29.15;;;5.10;55.70;;;;;;5073548;28;20123;-70
2020/12/03 01:25:40;;;;;;;55.22;28.90;;;5.10;55.90;;;;;;5073520;28;20037;-71
2020/12/03 01:28:06;;;;;;;52.95;27.42;;;5.10;56.10;;;;;;5073621;28;20023;-70
2020/12/03 01:30:32;;;;;;;54.45;27.90;;;5.10;56.20;;;;;;5073613;28;20017;-71
2020/12/03 01:32:58;;;;;;;60.55;30.35;;;5.00;56.30;;;;;;5072234;28;20113;-70
2020/12/03 01:35:23;;;;;;;60.45;30.17;;;5.00;56.50;;;;;;5073506;28;20040;-70
2020/12/03 01:37:50;;;;;;;57.90;29.33;;;5.00;56.60;;;;;;5058546;28;20028;-69
2020/12/03 01:40:25;;;;;;;57.92;29.90;;;4.90;56.90;;;;;;5053440;28;20432;-71
2020/12/03 01:42:52;;;;;;;61.33;30.70;;;4.90;57.00;;;;;;5053382;28;20020;-70
2020/12/03 01:45:43;;;;;;;63.42;29.63;;;4.90;57.20;;;;;;5072096;28;20397;-70
2020/12/03 01:48:48;;;;;;;62.65;30.55;;;4.90;57.40;;;;;;5071549;28;20040;-71
2020/12/03 01:51:25;;;;;;;57.42;29.52;;;4.90;57.40;;;;;;5072132;28;20062;-70
2020/12/03 01:53:59;;;;;;;57.03;30.05;;;4.90;57.40;;;;;;5073392;28;20028;-69
2020/12/03 01:56:49;;;;;;;59.33;29.75;;;4.80;57.60;;;;;;5073594;28;20449;-71
2020/12/03 01:59:15;;;;;;;45.60;23.83;;;4.80;57.70;;;;;;5072033;28;20484;-70
2020/12/03 02:01:41;;;;;;;53.58;26.88;;;4.80;57.60;;;;;;5073490;28;20039;-70
2020/12/03 02:04:08;;;;;;;59.90;29.40;;;4.80;57.90;;;;;;5073422;28;20373;-75
2020/12/03 02:06:39;;;;;;;51.53;26.20;;;4.80;58.10;;;;;;5055878;28;20092;-76
2020/12/03 02:09:06;;;;;;;54.83;27.80;;;4.80;58.10;;;;;;5053116;28;20021;-73
2020/12/03 02:11:32;;;;;;;49.17;24.17;;;4.80;58.20;;;;;;5053107;28;20025;-73
2020/12/03 02:14:01;;;;;;;42.88;22.92;;;4.80;58.10;;;;;;5064645;28;20089;-73
2020/12/03 02:16:31;;;;;;;47.22;23.85;;;4.80;58.30;;;;;;5071858;28;20028;-76
2020/12/03 02:18:57;;;;;;;45.15;23.85;;;4.90;58.40;;;;;;5073098;28;20027;-76
2020/12/03 02:21:23;;;;;;;48.20;23.85;;;4.90;58.50;;;;;;5073025;28;20473;-77
2020/12/03 02:23:49;;;;;;;46.45;24.50;;;4.90;58.50;;;;;;5072819;28;20489;-75
2020/12/03 02:26:16;;;;;;;47.42;23.80;;;5.00;58.50;;;;;;5072962;28;20020;-72
2020/12/03 02:28:42;;;;;;;49.20;23.92;;;5.00;58.60;;;;;;5073156;28;20025;-71
2020/12/03 02:31:09;;;;;;;52.30;26.17;;;5.00;58.50;;;;;;5072979;28;20086;-76
2020/12/03 02:33:35;;;;;;;50.08;25.67;;;5.00;58.50;;;;;;5070987;28;20110;-75
2020/12/03 02:36:00;;;;;;;49.88;25.67;;;5.00;58.30;;;;;;5064572;28;20173;-76
2020/12/03 02:38:29;;;;;;;48.72;25.65;;;5.10;58.40;;;;;;5049592;28;20474;-76
2020/12/03 02:40:59;;;;;;;45.45;23.42;;;5.10;58.50;;;;;;5050674;28;20029;-75
2020/12/03 02:43:27;;;;;;;47.88;25.05;;;5.10;58.40;;;;;;5051893;28;20021;-75
2020/12/03 02:45:53;;;;;;;55.85;28.27;;;5.10;58.50;;;;;;5051926;28;20378;-75
2020/12/03 02:48:19;;;;;;;58.95;28.52;;;5.10;58.50;;;;;;5051947;28;20074;-75
2020/12/03 02:50:45;;;;;;;50.00;26.38;;;5.10;58.40;;;;;;5051891;28;20032;-76
2020/12/03 02:53:10;;;;;;;53.60;27.27;;;5.10;58.40;;;;;;5051947;28;20414;-75
2020/12/03 02:55:36;;;;;;;47.05;24.73;;;5.10;58.50;;;;;;5050593;28;20037;-75
2020/12/03 02:58:02;;;;;;;49.45;26.02;;;5.10;58.50;;;;;;5050581;28;20482;-75
2020/12/03 03:00:28;;;;;;;46.42;23.52;;;5.10;58.50;;;;;;5054469;28;20047;-75
2020/12/03 03:02:54;;;;;;;49.33;25.83;;;5.10;58.50;;;;;;5055406;28;20363;-75
2020/12/03 03:05:19;;;;;;;50.05;26.30;;;5.10;58.60;;;;;;5055271;28;20028;-75
2020/12/03 03:07:45;;;;;;;49.60;24.77;;;5.20;58.50;;;;;;5055284;28;20067;-75
2020/12/03 03:10:14;;;;;;;46.42;23.60;;;5.20;58.50;;;;;;5055177;28;20029;-75
2020/12/03 03:12:40;;;;;;;45.33;23.65;;;5.20;58.60;;;;;;5055888;28;20036;-75
2020/12/03 03:15:06;;;;;;;47.05;23.45;;;5.20;58.60;;;;;;5075111;28;20020;-74
2020/12/03 03:17:32;;;;;;;46.35;23.17;;;5.20;58.60;;;;;;5075081;28;20046;-75
2020/12/03 03:19:57;;;;;;;43.60;22.50;;;5.20;58.70;;;;;;5073750;28;20070;-75
2020/12/03 03:22:23;;;;;;;55.13;29.02;;;5.20;58.60;;;;;;5073422;28;20056;-75
2020/12/03 03:24:49;;;;;;;53.10;27.52;;;5.20;58.80;;;;;;5073701;28;20060;-75
2020/12/03 03:27:14;;;;;;;54.00;28.38;;;5.20;58.70;;;;;;5074887;28;20021;-75
2020/12/03 03:29:40;;;;;;;51.30;27.58;;;5.20;58.60;;;;;;5061018;28;20056;-75
2020/12/03 03:32:06;;;;;;;49.45;26.60;;;5.10;58.60;;;;;;5053519;28;20460;-75
2020/12/03 03:34:32;;;;;;;54.58;27.38;;;5.10;58.60;;;;;;5053289;28;20033;-75
2020/12/03 03:36:57;;;;;;;58.08;30.45;;;5.10;58.60;;;;;;5054531;28;20102;-75
2020/12/03 03:39:25;;;;;;;53.80;27.35;;;5.10;58.70;;;;;;5034590;28;20475;-75
2020/12/03 03:41:53;;;;;;;59.85;30.58;;;5.10;58.70;;;;;;5034763;28;20087;-75
2020/12/03 03:44:20;;;;;;;60.25;29.23;;;5.00;58.80;;;;;;5072037;28;20024;-75
2020/12/03 03:46:47;;;;;;;59.95;29.20;;;5.00;58.80;;;;;;5074534;28;20021;-75
2020/12/03 03:49:13;;;;;;;60.20;30.88;;;5.00;58.80;;;;;;5074599;28;20021;-75
2020/12/03 03:51:39;;;;;;;59.58;29.90;;;4.90;58.80;;;;;;5074436;28;20108;-75
2020/12/03 03:54:05;;;;;;;53.78;27.20;;;4.90;58.80;;;;;;5074448;28;20040;-75
2020/12/03 03:56:31;;;;;;;59.03;29.80;;;4.90;58.80;;;;;;5069806;28;20100;-75
2020/12/03 03:58:57;;;;;;;54.75;27.52;;;4.90;58.90;;;;;;5052983;28;20167;-75
2020/12/03 04:01:23;;;;;;;61.47;30.27;;;4.80;58.90;;;;;;5054242;28;20021;-75
2020/12/03 04:03:49;;;;;;;62.35;28.52;;;4.80;58.90;;;;;;5069247;28;20117;-75
2020/12/03 04:06:15;;;;;;;55.50;27.92;;;4.70;58.90;;;;;;5074115;28;20488;-75
2020/12/03 04:08:41;;;;;;;62.90;30.98;;;4.70;59.00;;;;;;5074193;28;20114;-75
2020/12/03 04:11:06;;;;;;;59.50;29.77;;;4.70;59.10;;;;;;5073031;28;20051;-74
2020/12/03 04:13:32;;;;;;;58.97;28.85;;;4.60;59.10;;;;;;5072143;28;20473;-75
2020/12/03 04:15:58;;;;;;;58.95;29.38;;;4.60;59.10;;;;;;5074028;28;20100;-75
2020/12/03 04:18:27;;;;;;;55.42;27.90;;;4.60;59.20;;;;;;5072656;28;20496;-75
2020/12/03 04:20:58;;;;;;;57.58;27.70;;;4.60;59.20;;;;;;5073841;28;20024;-75
2020/12/03 04:23:24;;;;;;;62.83;29.42;;;4.50;59.10;;;;;;5073514;28;20044;-75
2020/12/03 04:25:50;;;;;;;53.13;27.27;;;4.50;59.10;;;;;;5073670;28;20025;-75
2020/12/03 04:28:17;;;;;;;58.38;28.60;;;4.50;59.10;;;;;;5073691;28;20013;-75
2020/12/03 04:30:42;;;;;;;66.53;31.10;;;4.50;59.10;;;;;;5073572;28;20020;-75
2020/12/03 04:33:09;;;;;;;56.05;29.52;;;4.50;59.20;;;;;;5065846;28;20104;-75
2020/12/03 04:35:37;;;;;;;55.17;30.65;;;4.40;59.70;;;;;;5053469;28;20025;-75
2020/12/03 04:38:05;;;;;;;55.88;29.02;;;4.40;59.20;;;;;;5044570;28;20024;-75
2020/12/03 04:40:34;;;;;;;57.10;28.90;;;4.40;59.80;;;;;;5034603;28;20037;-75
2020/12/03 04:43:14;;;;;;;62.65;30.25;;;4.40;59.20;;;;;;5052164;28;20032;-75
2020/12/03 04:45:47;;;;;;;54.45;28.63;;;4.30;59.20;;;;;;5052548;28;20032;-75
2020/12/03 04:48:54;;;;;;;62.28;29.77;;;4.30;59.30;;;;;;5053137;28;20036;-75
2020/12/03 04:51:57;;;;;;;52.03;25.45;;;4.30;59.40;;;;;;5052929;28;20035;-74
2020/12/03 04:54:30;;;;;;;57.53;27.08;;;4.30;59.30;;;;;;5053084;28;20428;-74
2020/12/03 04:57:18;;;;;;;50.13;25.92;;;4.20;59.30;;;;;;5072744;28;20517;-74
2020/12/03 05:00:07;;;;;;;55.80;27.40;;;4.20;59.20;;;;;;5051101;28;20033;-75
2020/12/03 05:03:00;;;;;;;57.83;26.73;;;4.30;59.30;;;;;;5064722;28;20386;-75
2020/12/03 05:05:34;;;;;;;48.70;23.60;;;4.30;59.30;;;;;;5052878;28;20378;-74
2020/12/03 05:08:27;;;;;;;48.72;24.13;;;4.30;59.10;;;;;;5051689;28;20025;-74
2020/12/03 05:10:52;;;;;;;50.40;23.90;;;4.20;59.10;;;;;;5052938;28;20067;-75
2020/12/03 05:13:22;;;;;;;56.15;24.25;;;4.20;59.00;;;;;;5051253;28;20060;-75
2020/12/03 05:15:52;;;;;;;54.22;26.20;;;4.20;59.00;;;;;;5052848;28;20500;-74
2020/12/03 05:18:53;;;;;;;51.25;25.42;;;4.20;59.00;;;;;;5051569;28;20029;-75
2020/12/03 05:21:24;;;;;;;48.00;21.88;;;4.20;58.90;;;;;;5050955;28;20035;-74
2020/12/03 05:23:50;;;;;;;41.78;20.33;;;4.20;58.80;;;;;;5052276;28;20041;-74
2020/12/03 05:26:28;;;;;;;50.08;24.33;;;4.10;58.70;;;;;;5052659;28;20359;-74
2020/12/03 05:29:08;;;;;;;44.72;21.40;;;4.10;58.70;;;;;;5032797;28;20122;-75
2020/12/03 05:31:45;;;;;;;46.38;22.88;;;4.10;58.70;;;;;;5038420;28;20017;-74
2020/12/03 05:34:20;;;;;;;53.38;23.95;;;4.00;58.70;;;;;;5052542;28;20528;-75
2020/12/03 05:36:55;;;;;;;60.35;26.65;;;4.00;58.80;;;;;;5052555;28;20382;-74
2020/12/03 05:39:31;;;;;;;55.35;27.95;;;3.90;58.80;;;;;;5032954;28;20029;-74
2020/12/03 05:42:01;;;;;;;50.35;24.52;;;3.90;58.80;;;;;;5058696;28;20035;-74
2020/12/03 05:44:33;;;;;;;47.28;24.08;;;3.90;58.70;;;;;;5052337;28;20040;-74
2020/12/03 05:47:00;;;;;;;51.75;24.80;;;3.80;58.80;;;;;;5052239;28;20070;-74
2020/12/03 05:49:28;;;;;;;54.97;25.90;;;3.80;58.80;;;;;;5052225;28;20029;-75
2020/12/03 05:52:18;;;;;;;51.55;25.08;;;3.80;58.90;;;;;;5052587;28;20021;-74
2020/12/03 05:55:06;;;;;;;51.65;24.67;;;3.80;58.90;;;;;;5052066;28;20055;-74
2020/12/03 05:57:42;;;;;;;58.30;27.10;;;3.70;58.90;;;;;;5032514;28;20030;-74
2020/12/03 06:00:13;;;;;;;51.88;23.67;;;3.70;59.00;;;;;;5031236;28;20068;-74
2020/12/03 06:02:57;;;;;;;52.42;25.77;;;3.70;59.00;;;;;;5032706;28;20053;-74
2020/12/03 06:06:12;;;;;;;45.67;23.23;;;3.70;59.20;;;;;;5047838;28;20394;-75
2020/12/03 06:09:05;;;;;;;53.17;25.03;;;3.70;59.90;;;;;;5024504;28;20057;-74
2020/12/03 06:12:20;;;;;;;51.38;24.50;;;3.70;59.40;;;;;;5032212;28;20101;-74
2020/12/03 06:15:14;;;;;;;57.17;27.45;;;3.70;60.00;;;;;;5031826;28;20069;-74
2020/12/03 06:18:08;;;;;;;49.22;23.73;;;3.80;59.50;;;;;;5028022;28;20037;-74
2020/12/03 06:21:03;;;;;;;51.95;23.70;;;3.80;59.50;;;;;;5029880;28;20029;-74
2020/12/03 06:23:39;;;;;;;52.10;24.65;;;3.90;59.50;;;;;;5007203;28;20045;-74
2020/12/03 06:26:30;;;;;;;65.50;29.75;;;3.90;59.30;;;;;;5034385;28;20033;-74
2020/12/03 06:29:22;;;;;;;58.05;26.50;;;4.00;59.30;;;;;;5017326;28;20068;-74
2020/12/03 06:32:20;;;;;;;50.38;24.15;;;3.90;59.10;;;;;;5030167;28;20033;-74
2020/12/03 06:35:01;;;;;;;56.28;26.20;;;3.90;59.00;;;;;;5053081;28;20032;-74
2020/12/03 06:37:56;;;;;;;49.42;24.50;;;3.90;59.00;;;;;;5049713;28;20037;-74
2020/12/03 06:40:26;;;;;;;54.90;26.65;;;3.90;59.00;;;;;;5033823;28;20052;-74
2020/12/03 06:43:06;;;;;;;52.63;24.65;;;3.90;58.90;;;;;;5035638;28;20037;-74
2020/12/03 06:45:46;;;;;;;53.83;24.83;;;4.00;59.00;;;;;;5033461;28;20030;-74
2020/12/03 06:48:34;;;;;;;57.95;25.70;;;3.90;59.00;;;;;;5033627;28;20428;-74
2020/12/03 06:51:06;;;;;;;51.42;25.90;;;4.00;59.10;;;;;;5059600;28;20028;-74
2020/12/03 06:54:09;;;;;;;49.42;25.48;;;4.00;59.10;;;;;;5052676;28;20547;-74
2020/12/03 06:57:04;;;;;;;50.70;24.40;;;4.00;59.20;;;;;;5053985;28;20462;-74
2020/12/03 06:59:50;;;;;;;48.15;24.45;;;4.00;59.20;;;;;;5055483;28;20025;-74
2020/12/03 07:02:24;;;;;;;52.13;24.83;;;4.10;59.30;;;;;;5055356;28;20021;-74
2020/12/03 07:05:27;;;;;;;53.80;26.08;;;4.10;59.20;;;;;;5055163;28;20029;-74
2020/12/03 07:08:19;;;;;;;55.28;26.15;;;4.20;59.30;;;;;;5058342;28;20025;-74
2020/12/03 07:10:57;;;;;;;55.17;25.13;;;4.20;59.20;;;;;;5054941;28;20121;-74
2020/12/03 07:13:56;;;;;;;48.35;24.23;;;4.30;59.80;;;;;;5058531;28;20017;-74
2020/12/03 07:16:34;;;;;;;55.67;27.58;;;4.40;59.20;;;;;;5058357;28;20036;-74
2020/12/03 07:19:50;;;;;;;56.40;26.10;;;4.40;59.10;;;;;;5071570;28;20032;-74
2020/12/03 07:22:18;;;;;;;51.40;24.83;;;4.50;59.00;;;;;;5046571;28;20497;-74
2020/12/03 07:24:47;;;;;;;54.58;24.83;;;4.60;59.00;;;;;;5067871;28;20033;-74
2020/12/03 07:27:52;;;;;;;70.35;32.22;;;4.60;59.00;;;;;;5056750;28;20043;-74
2020/12/03 07:30:45;;;;;;;66.95;31.92;;;4.70;58.90;;;;;;5045009;28;20039;-74
2020/12/03 07:33:32;;;;;;;55.72;27.10;;;4.70;58.80;;;;;;5033815;28;20029;-74
2020/12/03 07:36:36;;;;;;;51.47;25.55;;;4.80;58.80;;;;;;5032386;28;20453;-74
2020/12/03 07:39:04;;;;;;;56.25;27.15;;;4.90;58.70;;;;;;5050977;28;20017;-74
2020/12/03 07:41:38;;;;;;;52.75;26.40;;;4.90;58.70;;;;;;5054620;28;20021;-74
2020/12/03 07:44:14;;;;;;;56.47;28.52;;;5.00;58.60;;;;;;5053220;28;20086;-74
2020/12/03 07:46:40;;;;;;;55.58;28.65;;;5.00;58.50;;;;;;5053950;28;20108;-74
2020/12/03 07:49:09;;;;;;;57.53;28.95;;;5.10;58.30;;;;;;5054425;28;20100;-74
2020/12/03 07:51:35;;;;;;;86.10;31.80;;;5.20;58.30;;;;;;5053172;28;20331;-74
2020/12/03 07:54:27;;;;;;;56.95;27.80;;;5.20;58.20;;;;;;5054355;28;20033;-74
2020/12/03 07:56:53;;;;;;;52.58;26.63;;;5.30;58.10;;;;;;5053137;28;20037;-74
2020/12/03 07:59:29;;;;;;;63.90;27.75;;;5.30;58.00;;;;;;5054292;28;20079;-74
2020/12/03 08:01:57;;;;;;;62.35;29.88;;;5.40;58.00;;;;;;5054244;28;20025;-74
2020/12/03 08:04:37;;;;;;;54.33;25.30;;;5.40;57.80;;;;;;5054097;28;20083;-74
2020/12/03 08:07:03;;;;;;;56.88;26.92;;;5.50;57.80;;;;;;5052940;28;20021;-74
2020/12/03 08:09:43;;;;;;;69.65;28.92;;;5.50;57.70;;;;;;5054114;28;20516;-74
2020/12/03 08:12:19;;;;;;;58.92;27.70;;;5.50;58.00;;;;;;5054117;28;20056;-74
2020/12/03 08:15:05;;;;;;;55.63;26.08;;;5.60;57.40;;;;;;5054053;28;20633;-74
2020/12/03 08:17:31;;;;;;;66.63;29.60;;;5.60;57.20;;;;;;5052618;28;20043;-74
2020/12/03 08:20:03;;;;;;;65.25;29.80;;;5.70;57.10;;;;;;5053788;28;20029;-74
2020/12/03 08:22:36;;;;;;;52.38;26.33;;;5.70;56.90;;;;;;5052341;28;20468;-74
2020/12/03 08:25:14;;;;;;;56.92;27.73;;;5.70;57.00;;;;;;5053722;28;20083;-74
2020/12/03 08:27:40;;;;;;;48.53;25.20;;;5.70;57.00;;;;;;5053687;28;20025;-74
2020/12/03 08:30:37;;;;;;;63.92;30.38;;;5.70;57.00;;;;;;5053709;28;20075;-74
2020/12/03 08:33:35;;;;;;;64.18;29.55;;;5.80;56.90;;;;;;5053545;28;20099;-74
2020/12/03 08:36:08;;;;;;;64.43;30.38;;;5.80;57.10;;;;;;5053544;28;20024;-74
2020/12/03 08:38:41;;;;;;;70.40;34.03;;;5.90;57.00;;;;;;5040236;28;20031;-74
2020/12/03 08:41:12;;;;;;;68.93;33.35;;;5.90;57.00;;;;;;5051617;28;20033;-74
2020/12/03 08:43:51;;;;;;;66.07;32.00;;;5.90;56.90;;;;;;5053779;28;20355;-74
2020/12/03 08:46:22;;;;;;;61.35;30.52;;;5.90;56.90;;;;;;5053363;28;20032;-73
2020/12/03 08:48:49;;;;;;;58.85;29.83;;;5.90;56.90;;;;;;5053328;28;20013;-73
2020/12/03 08:51:16;;;;;;;65.55;30.85;;;5.90;57.00;;;;;;5052102;28;20381;-72
2020/12/03 08:53:48;;;;;;;72.97;33.60;;;6.00;57.00;;;;;;5051911;28;20032;-72
2020/12/03 08:56:16;;;;;;;67.68;31.17;;;6.00;56.80;;;;;;5053079;28;20050;-72
2020/12/03 08:59:09;;;;;;;63.17;30.88;;;6.00;56.90;;;;;;5053136;28;20094;-72
2020/12/03 09:01:55;;;;;;;71.68;35.42;;;6.10;56.90;;;;;;5053152;28;20025;-72
2020/12/03 09:04:24;;;;;;;65.50;33.25;;;6.20;56.90;;;;;;5053069;28;20474;-72
2020/12/03 09:06:52;;;;;;;71.68;33.88;;;6.20;56.80;;;;;;5053101;28;20023;-73
2020/12/03 09:09:23;;;;;;;69.38;34.80;;;6.20;56.60;;;;;;5052947;28;20092;-72
2020/12/03 09:11:51;;;;;;;67.38;32.97;;;6.30;56.50;;;;;;5051664;28;20385;-73
2020/12/03 09:14:19;;;;;;;68.57;33.10;;;6.30;56.50;;;;;;5052848;28;20075;-72
2020/12/03 09:16:49;;;;;;;68.85;33.03;;;6.40;56.30;;;;;;5052903;28;20107;-72
2020/12/03 09:19:25;;;;;;;66.22;33.35;;;6.50;56.30;;;;;;5053294;28;20452;-73
2020/12/03 09:21:53;;;;;;;72.47;35.97;;;6.50;56.10;;;;;;5052708;28;20087;-73
2020/12/03 09:24:22;;;;;;;67.78;32.08;;;6.60;55.80;;;;;;5052695;28;20108;-73
2020/12/03 09:26:49;;;;;;;66.20;31.35;;;6.60;55.70;;;;;;5052499;28;20017;-74
2020/12/03 09:29:18;;;;;;;62.33;31.55;;;6.70;55.80;;;;;;5051644;28;20069;-73
2020/12/03 09:31:45;;;;;;;61.78;31.40;;;6.70;55.90;;;;;;5052500;28;20027;-73
2020/12/03 09:34:13;;;;;;;63.40;30.63;;;6.80;56.00;;;;;;5052563;28;20056;-73
2020/12/03 09:36:39;;;;;;;63.22;32.50;;;6.90;56.10;;;;;;5052586;28;20028;-73
2020/12/03 09:39:05;;;;;;;63.92;31.58;;;7.00;55.80;;;;;;5035027;28;20029;-73
2020/12/03 09:41:33;;;;;;;68.63;33.58;;;7.10;55.70;;;;;;5032470;28;20109;-73
2020/12/03 09:44:03;;;;;;;77.25;35.70;;;7.20;55.60;;;;;;5047851;28;20465;-74
2020/12/03 09:46:32;;;;;;;75.20;36.45;;;7.20;55.10;;;;;;5032575;28;20482;-73
2020/12/03 09:49:00;;;;;;;70.32;32.15;;;7.30;54.90;;;;;;5032551;28;20199;-74
2020/12/03 09:51:26;;;;;;;66.88;32.95;;;7.30;54.80;;;;;;5032576;28;20076;-73
2020/12/03 09:53:52;;;;;;;76.40;34.83;;;7.30;54.60;;;;;;5032450;28;20066;-73
2020/12/03 09:56:21;;;;;;;65.47;34.17;;;7.40;54.70;;;;;;5047837;28;20029;-74
2020/12/03 09:58:57;;;;;;;63.97;31.63;;;7.40;54.40;;;;;;5032476;28;20105;-74
2020/12/03 10:01:47;;;;;;;66.72;31.48;;;7.50;54.40;;;;;;5047809;28;20028;-74
2020/12/03 10:05:00;;;;;;;79.60;36.88;;;7.50;54.30;;;;;;5032324;28;20017;-74
2020/12/03 10:07:52;;;;;;;71.35;34.35;;;7.50;54.30;;;;;;5032336;28;20542;-74
2020/12/03 10:10:44;;;;;;;77.95;39.65;;;7.60;54.30;;;;;;5033201;28;20041;-73
2020/12/03 10:13:54;;;;;;;78.75;37.33;;;7.60;53.90;;;;;;5036475;28;20076;-73
2020/12/03 10:16:22;;;;;;;82.55;37.33;;;7.60;53.60;;;;;;5036206;28;20029;-75
2020/12/03 10:18:53;;;;;;;75.15;36.22;;;7.60;53.60;;;;;;5036255;28;20022;-74
2020/12/03 10:21:27;;;;;;;72.45;34.92;;;7.60;53.60;;;;;;5065978;28;20032;-73
2020/12/03 10:24:12;;;;;;;71.72;34.60;;;7.70;53.80;;;;;;5061996;28;20037;-74
2020/12/03 10:26:59;;;;;;;76.32;39.28;;;7.70;53.60;;;;;;5066294;28;20500;-73
2020/12/03 10:29:37;;;;;;;80.13;36.50;;;7.70;53.40;;;;;;5045495;28;20029;-73
2020/12/03 10:32:20;;;;;;;78.65;36.95;;;7.70;53.60;;;;;;5058642;28;20355;-74
2020/12/03 10:34:47;;;;;;;74.47;35.00;;;7.70;53.70;;;;;;5055697;28;20024;-74
2020/12/03 10:37:44;;;;;;;87.35;41.60;;;7.70;53.90;;;;;;5051709;28;20047;-74
2020/12/03 10:40:14;;;;;;;82.53;39.83;;;7.80;54.10;;;;;;5055671;28;20025;-74
2020/12/03 10:42:46;;;;;;;77.32;38.85;;;7.90;54.10;;;;;;5054327;28;20029;-74
2020/12/03 10:45:22;;;;;;;88.45;40.83;;;8.00;53.90;;;;;;5053951;28;20024;-74
2020/12/03 10:47:59;;;;;;;77.10;38.25;;;8.10;53.80;;;;;;5038784;28;20022;-74
2020/12/03 10:50:47;;;;;;;84.85;40.25;;;8.20;53.80;;;;;;5055309;28;20100;-74
2020/12/03 10:53:16;;;;;;;84.22;38.97;;;8.30;53.80;;;;;;5042000;28;20466;-73
2020/12/03 10:55:43;;;;;;;86.47;40.33;;;8.30;53.30;;;;;;5045815;28;20437;-73
2020/12/03 10:58:12;;;;;;;86.32;42.10;;;8.40;53.20;;;;;;5054349;28;20474;-73
2020/12/03 11:00:42;;;;;;;83.43;39.63;;;8.30;53.20;;;;;;5053360;28;20131;-73
2020/12/03 11:03:13;;;;;;;78.60;38.95;;;8.40;53.00;;;;;;5044831;28;20068;-73
2020/12/03 11:05:45;;;;;;;95.68;40.95;;;8.50;53.20;;;;;;5056547;28;20033;-73
2020/12/03 11:08:11;;;;;;;88.07;39.58;;;8.50;53.00;;;;;;5054298;28;20079;-76
2020/12/03 11:10:40;;;;;;;92.60;44.67;;;8.60;52.90;;;;;;5051367;28;20029;-75
2020/12/03 11:13:07;;;;;;;95.38;44.83;;;8.60;52.70;;;;;;5051940;28;20082;-74
2020/12/03 11:15:33;;;;;;;85.35;42.38;;;8.60;52.60;;;;;;5058230;28;20052;-72
2020/12/03 11:18:08;;;;;;;85.28;39.45;;;8.70;52.80;;;;;;5053477;28;20111;-72
2020/12/03 11:20:37;;;;;;;76.50;36.58;;;8.70;52.60;;;;;;5054584;28;21013;-74
2020/12/03 11:23:13;;;;;;;68.00;35.55;;;8.80;52.70;;;;;;5056043;28;20044;-75
2020/12/03 11:25:40;;;;;;;73.45;35.88;;;8.80;52.70;;;;;;5053993;28;20082;-72
2020/12/03 11:28:30;;;;;;;69.47;33.47;;;8.90;52.30;;;;;;5042022;28;20017;-75
2020/12/03 11:31:02;;;;;;;68.22;35.63;;;8.90;52.10;;;;;;5058795;28;20036;-75
2020/12/03 11:33:30;;;;;;;65.25;33.05;;;9.00;52.00;;;;;;5048163;28;20021;-73
2020/12/03 11:36:15;;;;;;;78.03;37.60;;;9.00;51.90;;;;;;5053722;28;20049;-72
2020/12/03 11:38:50;;;;;;;87.72;39.85;;;9.00;51.80;;;;;;5045485;28;20035;-74
2020/12/03 11:41:33;;;;;;;80.53;39.30;;;9.10;51.60;;;;;;5053593;28;20032;-71
2020/12/03 11:49:29;;;;;;;112.65;52.05;;;9.10;51.60;;;;;;5049627;28;20039;-73
2020/12/03 11:51:55;;;;;;;;;;;9.10;51.70;;;;;;5047725;28;20044;-74
2020/12/03 11:54:28;;;;;;;115.50;54.97;;;9.10;52.20;;;;;;5054056;28;20344;-72
2020/12/03 11:56:57;;;;;;;123.70;56.78;;;9.10;51.50;;;;;;5055043;28;20052;-75
2020/12/03 11:59:32;;;;;;;124.53;56.53;;;9.10;51.20;;;;;;5055026;28;20060;-73
2020/12/03 12:02:04;;;;;;;114.97;55.22;;;9.10;51.10;;;;;;5066616;28;20036;-76
2020/12/03 12:04:59;;;;;;;104.53;48.00;;;9.00;51.70;;;;;;5054459;28;20394;-75
2020/12/03 12:07:24;;;;;;;98.10;44.97;;;9.00;51.20;;;;;;5055001;28;20545;-75
2020/12/03 12:12:21;;;;;;;70.50;35.70;;;8.90;51.30;;;;;;5053780;28;20108;-75
2020/12/03 12:14:47;;;;;;;78.35;36.45;;;8.90;51.60;;;;;;5053369;28;20050;-75
2020/12/03 12:17:14;;;;;;;78.40;40.10;;;9.00;51.60;;;;;;5067088;28;20142;-77
2020/12/03 12:19:41;;;;;;;82.30;38.78;;;9.00;51.30;;;;;;5074861;28;20107;-75
2020/12/03 12:22:09;;;;;;;83.60;39.47;;;9.00;51.50;;;;;;5064824;28;20052;-75
2020/12/03 12:24:39;;;;;;;77.63;37.17;;;9.00;51.40;;;;;;5069865;28;20060;-75
2020/12/03 12:27:05;;;;;;;75.30;36.08;;;9.00;51.20;;;;;;5073099;28;20052;-77
2020/12/03 12:29:31;;;;;;;80.50;38.15;;;9.00;51.10;;;;;;5055129;28;20477;-78
2020/12/03 12:31:59;;;;;;;93.80;46.35;;;9.00;51.10;;;;;;5054674;28;20475;-76
2020/12/03 12:34:25;;;;;;;95.45;45.65;;;9.00;50.90;;;;;;5049176;28;20086;-73
2020/12/03 12:36:51;;;;;;;85.80;41.05;;;9.10;50.70;;;;;;5035088;28;20057;-74
2020/12/03 12:39:16;;;;;;;89.38;43.42;;;9.00;50.90;;;;;;5034733;28;20017;-74
2020/12/03 12:41:56;;;;;;;91.47;42.38;;;9.10;51.20;;;;;;5045641;28;20032;-74
2020/12/03 12:44:22;;;;;;;84.32;39.47;;;9.10;50.80;;;;;;5055635;28;20509;-74
2020/12/03 12:46:47;;;;;;;91.45;44.42;;;9.10;51.00;;;;;;5054352;28;20025;-74
2020/12/03 12:49:13;;;;;;;85.47;42.38;;;9.10;50.70;;;;;;5069105;28;20017;-74
2020/12/03 12:51:39;;;;;;;87.15;41.53;;;9.00;50.70;;;;;;5061162;28;20378;-74
2020/12/03 12:54:05;;;;;;;89.45;43.75;;;9.00;50.80;;;;;;5060923;28;20058;-74
2020/12/03 12:56:30;;;;;;;102.57;47.90;;;9.00;50.50;;;;;;5049921;28;20032;-74
2020/12/03 12:58:56;;;;;;;90.78;43.30;;;9.00;50.40;;;;;;5034138;28;20105;-74
2020/12/03 13:01:22;;;;;;;96.80;42.25;;;9.00;50.40;;;;;;5049058;28;20068;-74
2020/12/03 13:03:48;;;;;;;90.10;43.35;;;9.00;50.80;;;;;;5053819;28;20116;-74
2020/12/03 13:06:14;;;;;;;84.10;40.78;;;9.00;50.60;;;;;;5071745;28;20024;-74
2020/12/03 13:08:40;;;;;;;85.50;40.83;;;9.00;50.60;;;;;;5064020;28;20044;-74
2020/12/03 13:11:06;;;;;;;87.40;43.20;;;9.10;50.60;;;;;;5057222;28;20493;-74
2020/12/03 13:13:34;;;;;;;89.45;44.78;;;9.10;50.30;;;;;;5062123;28;20431;-74
2020/12/03 13:16:01;;;;;;;99.03;46.20;;;9.10;49.90;;;;;;5054010;28;20022;-74
2020/12/03 13:18:26;;;;;;;85.18;42.78;;;9.00;49.70;;;;;;5049322;28;20023;-74